Time;durP1;ratioP1;P1;durP2;ratioP2;P2;SDS_P1;SDS_P2;PMS_P1;PMS_P2;Temp;Humidity;BMP_temperature;BMP_pressure;BME280_temperature;BME280_humidity;BME280_pressure;Samples;Min_cycle;Max_cycle;Signal;HPM_P1;HPM_P2
2022/07/12 00:01:28;;;;;;;1.77;0.70;;;16.60;99.90;;;;;;4147860;28;20054;-82
2022/07/12 00:03:28;;;;;;;1.73;0.90;;;16.60;99.90;;;;;;4133400;28;20038;-82
2022/07/12 00:05:29;;;;;;;1.35;0.75;;;16.60;99.90;;;;;;4115976;28;20054;-81
2022/07/12 00:07:30;;;;;;;1.10;0.80;;;16.60;99.90;;;;;;4115919;28;20487;-82
2022/07/12 00:09:31;;;;;;;1.58;1.02;;;16.60;99.90;;;;;;4116114;28;20061;-83
2022/07/12 00:11:31;;;;;;;1.50;1.20;;;16.70;99.90;;;;;;4148489;28;20053;-82
2022/07/12 00:13:33;;;;;;;1.25;1.00;;;16.70;99.90;;;;;;4132326;28;20518;-81
2022/07/12 00:15:34;;;;;;;1.95;1.52;;;16.70;99.90;;;;;;4132296;28;20042;-81
2022/07/12 00:17:34;;;;;;;2.13;1.50;;;16.60;99.90;;;;;;4115249;28;20462;-81
2022/07/12 00:19:35;;;;;;;2.35;1.40;;;16.60;99.90;;;;;;4132237;28;20482;-81
2022/07/12 00:21:36;;;;;;;2.75;1.63;;;16.50;99.90;;;;;;4131680;28;20541;-81
2022/07/12 00:23:36;;;;;;;2.75;1.90;;;16.40;99.90;;;;;;4114661;28;20054;-81
2022/07/12 00:25:37;;;;;;;3.25;1.80;;;16.40;99.90;;;;;;4114898;28;20054;-81
2022/07/12 00:27:38;;;;;;;2.70;2.00;;;16.40;99.90;;;;;;4115027;28;20054;-81
2022/07/12 00:29:38;;;;;;;2.15;1.40;;;16.30;99.90;;;;;;4116484;28;20159;-81
2022/07/12 00:31:39;;;;;;;1.80;1.40;;;16.20;99.90;;;;;;4147211;28;20057;-81
2022/07/12 00:33:40;;;;;;;1.70;1.52;;;16.20;99.90;;;;;;4099327;28;20101;-82
2022/07/12 00:35:40;;;;;;;2.25;1.58;;;16.30;99.90;;;;;;4099382;29;20523;-82
2022/07/12 00:37:41;;;;;;;1.58;1.35;;;16.30;99.90;;;;;;4115107;28;20054;-82
2022/07/12 00:39:42;;;;;;;2.22;1.60;;;16.30;99.90;;;;;;4116499;28;20507;-82
2022/07/12 00:41:43;;;;;;;2.58;1.60;;;16.30;99.90;;;;;;4115931;28;20042;-81
2022/07/12 00:43:43;;;;;;;2.83;1.80;;;16.30;99.90;;;;;;4114896;28;20050;-81
2022/07/12 00:45:44;;;;;;;5.03;1.80;;;16.30;99.90;;;;;;4099129;29;20051;-81
2022/07/12 00:47:46;;;;;;;3.03;2.45;;;16.30;99.90;;;;;;4139876;28;20128;-81
2022/07/12 00:49:47;;;;;;;3.08;2.30;;;16.40;99.90;;;;;;4147714;28;20486;-82
2022/07/12 00:51:50;;;;;;;3.33;2.28;;;16.30;99.90;;;;;;4131133;28;20050;-81
2022/07/12 00:53:55;;;;;;;3.92;2.35;;;16.30;99.90;;;;;;4147155;28;20085;-82
2022/07/12 00:55:58;;;;;;;4.18;2.53;;;16.20;99.90;;;;;;4146792;28;20069;-82
2022/07/12 00:57:58;;;;;;;4.00;2.60;;;16.20;99.90;;;;;;4147209;28;20081;-81
2022/07/12 01:00:00;;;;;;;3.40;2.58;;;16.20;99.90;;;;;;4112168;28;20050;-81
2022/07/12 01:02:01;;;;;;;4.45;2.30;;;16.10;99.90;;;;;;4116381;28;20130;-82
2022/07/12 01:04:02;;;;;;;5.55;2.85;;;16.10;99.90;;;;;;4130307;28;20427;-82
2022/07/12 01:06:04;;;;;;;4.28;2.63;;;16.00;99.90;;;;;;4116148;28;20046;-82
2022/07/12 01:08:05;;;;;;;3.80;2.70;;;16.00;99.90;;;;;;4116153;28;20054;-82
2022/07/12 01:10:07;;;;;;;3.70;2.50;;;16.00;99.90;;;;;;4131052;28;20053;-82
2022/07/12 01:12:08;;;;;;;3.08;2.08;;;16.10;99.90;;;;;;4116054;28;20054;-81
2022/07/12 01:14:10;;;;;;;3.75;2.50;;;16.20;99.90;;;;;;4137681;28;20045;-81
2022/07/12 01:16:14;;;;;;;3.47;2.30;;;16.20;99.90;;;;;;4131241;28;20054;-81
2022/07/12 01:18:16;;;;;;;2.97;2.35;;;16.20;99.90;;;;;;4132097;28;20058;-81
2022/07/12 01:20:17;;;;;;;5.15;2.30;;;16.20;99.90;;;;;;4114941;28;20061;-82
2022/07/12 01:22:20;;;;;;;3.88;2.50;;;16.20;99.90;;;;;;4147079;28;20081;-82
2022/07/12 01:24:22;;;;;;;3.33;2.35;;;16.10;99.90;;;;;;4114627;28;20093;-82
2022/07/12 01:26:23;;;;;;;4.47;2.50;;;16.00;99.90;;;;;;4131801;28;20042;-82
2022/07/12 01:28:23;;;;;;;3.17;2.40;;;16.00;99.90;;;;;;4131912;28;20105;-82
2022/07/12 01:30:24;;;;;;;4.07;2.33;;;16.00;99.90;;;;;;4114833;28;20129;-81
2022/07/12 01:32:25;;;;;;;2.95;2.15;;;15.90;99.90;;;;;;4132106;28;20043;-81
2022/07/12 01:34:26;;;;;;;4.05;1.92;;;15.90;99.90;;;;;;4131735;28;20485;-81
2022/07/12 01:36:26;;;;;;;3.60;2.30;;;15.90;99.90;;;;;;4114962;28;20490;-81
2022/07/12 01:38:27;;;;;;;3.63;1.85;;;15.90;99.90;;;;;;4114996;28;20054;-81
2022/07/12 01:40:28;;;;;;;4.45;3.08;;;16.00;99.90;;;;;;4114588;28;20058;-82
2022/07/12 01:42:30;;;;;;;3.78;2.50;;;16.00;99.90;;;;;;4146625;28;20402;-81
2022/07/12 01:44:31;;;;;;;4.93;2.65;;;16.00;99.90;;;;;;4131448;28;20461;-82
2022/07/12 01:46:32;;;;;;;4.97;2.78;;;16.00;99.90;;;;;;4097796;29;20496;-82
2022/07/12 01:48:33;;;;;;;3.28;2.00;;;16.00;99.90;;;;;;4131336;28;20100;-82
2022/07/12 01:50:34;;;;;;;3.78;2.92;;;16.00;99.90;;;;;;4131807;28;20494;-82
2022/07/12 01:52:36;;;;;;;3.75;2.42;;;16.00;99.90;;;;;;4131552;28;20154;-82
2022/07/12 01:54:37;;;;;;;4.20;2.53;;;16.00;99.90;;;;;;4131429;28;20050;-82
2022/07/12 01:56:38;;;;;;;3.80;2.53;;;16.10;99.90;;;;;;4098257;29;20051;-82
2022/07/12 01:58:39;;;;;;;3.78;2.92;;;16.00;99.90;;;;;;4114224;28;20051;-81
2022/07/12 02:00:40;;;;;;;3.40;2.38;;;16.00;99.90;;;;;;4114286;28;20483;-80
2022/07/12 02:02:41;;;;;;;4.30;2.55;;;16.00;99.90;;;;;;4097992;29;20095;-80
2022/07/12 02:04:42;;;;;;;3.28;2.10;;;16.00;99.90;;;;;;4131385;28;20437;-80
2022/07/12 02:06:44;;;;;;;3.75;2.30;;;16.00;99.90;;;;;;4097801;29;20134;-80
2022/07/12 02:08:45;;;;;;;3.28;2.38;;;16.00;99.90;;;;;;4130948;28;20056;-80
2022/07/12 02:10:46;;;;;;;4.28;2.50;;;15.90;99.90;;;;;;4130905;28;20066;-80
2022/07/12 02:12:46;;;;;;;3.03;2.05;;;16.00;99.90;;;;;;4131734;28;20042;-80
2022/07/12 02:14:47;;;;;;;3.15;2.22;;;15.90;99.90;;;;;;4114449;28;20084;-80
2022/07/12 02:16:48;;;;;;;3.88;2.60;;;15.90;99.90;;;;;;4114127;28;20046;-80
2022/07/12 02:18:49;;;;;;;3.17;2.28;;;15.80;99.90;;;;;;4146225;28;20045;-80
2022/07/12 02:20:49;;;;;;;3.25;2.20;;;15.80;99.90;;;;;;4131445;28;20046;-80
2022/07/12 02:22:50;;;;;;;3.47;2.17;;;15.80;99.90;;;;;;4136928;28;20105;-80
2022/07/12 02:24:51;;;;;;;2.97;2.35;;;15.80;99.90;;;;;;4134022;28;20042;-80
2022/07/12 02:26:52;;;;;;;4.32;2.38;;;15.80;99.90;;;;;;4134608;28;20125;-80
2022/07/12 02:28:54;;;;;;;5.05;2.67;;;15.70;99.90;;;;;;4100482;29;20055;-80
2022/07/12 02:30:55;;;;;;;4.63;2.97;;;15.70;99.90;;;;;;4133740;28;20043;-80
2022/07/12 02:32:55;;;;;;;3.50;2.42;;;15.70;99.90;;;;;;4134087;28;20050;-80
2022/07/12 02:34:56;;;;;;;3.67;2.38;;;15.70;99.90;;;;;;4116567;28;20078;-80
2022/07/12 02:36:57;;;;;;;4.43;2.65;;;15.60;99.90;;;;;;4100459;29;20412;-80
2022/07/12 02:39:02;;;;;;;5.07;3.20;;;15.60;99.90;;;;;;4133558;28;20057;-80
2022/07/12 02:41:03;;;;;;;3.05;2.35;;;15.60;99.90;;;;;;4116440;28;20500;-80
2022/07/12 02:43:03;;;;;;;5.03;2.35;;;15.60;99.90;;;;;;4133289;28;20076;-80
2022/07/12 02:45:04;;;;;;;4.13;2.40;;;15.60;99.90;;;;;;4133319;28;20093;-80
2022/07/12 02:47:05;;;;;;;4.30;2.35;;;15.60;99.90;;;;;;4133870;28;20238;-80
2022/07/12 02:49:06;;;;;;;4.30;2.90;;;15.50;99.90;;;;;;4133750;28;20447;-80
2022/07/12 02:51:09;;;;;;;3.53;2.53;;;15.60;99.90;;;;;;4133640;28;20473;-80
2022/07/12 02:53:10;;;;;;;2.92;2.30;;;15.50;99.90;;;;;;4133153;28;20410;-80
2022/07/12 02:55:11;;;;;;;5.00;2.13;;;15.50;99.90;;;;;;4116432;28;20427;-80
2022/07/12 02:57:12;;;;;;;3.25;2.30;;;15.50;99.90;;;;;;4133529;28;20042;-80
2022/07/12 02:59:12;;;;;;;7.53;3.42;;;15.50;99.90;;;;;;4133451;28;20042;-80
2022/07/12 03:01:14;;;;;;;4.70;2.92;;;15.50;99.90;;;;;;4099567;29;20079;-80
2022/07/12 03:03:15;;;;;;;4.00;2.45;;;15.50;99.90;;;;;;4148268;28;20052;-80
2022/07/12 03:05:16;;;;;;;3.60;2.53;;;15.50;99.90;;;;;;4148447;28;20054;-80
2022/07/12 03:07:17;;;;;;;4.20;2.88;;;15.50;99.90;;;;;;4116027;28;20420;-80
2022/07/12 03:09:18;;;;;;;4.40;2.75;;;15.50;99.90;;;;;;4148315;28;20597;-80
2022/07/12 03:11:18;;;;;;;4.05;2.65;;;15.40;99.90;;;;;;4148161;28;20414;-80
2022/07/12 03:13:19;;;;;;;5.65;3.00;;;15.40;99.90;;;;;;4133432;28;20050;-80
2022/07/12 03:15:21;;;;;;;4.20;2.70;;;15.40;99.90;;;;;;4116222;28;20061;-81
2022/07/12 03:17:22;;;;;;;3.90;2.30;;;15.40;99.90;;;;;;4100370;28;20083;-81
2022/07/12 03:19:23;;;;;;;4.47;2.97;;;15.40;99.90;;;;;;4116288;28;20121;-82
2022/07/12 03:21:24;;;;;;;5.50;3.47;;;15.40;99.90;;;;;;4116786;28;20046;-81
2022/07/12 03:23:25;;;;;;;7.10;3.60;;;15.40;99.90;;;;;;4133879;28;20042;-81
2022/07/12 03:25:28;;;;;;;6.65;3.10;;;15.40;99.90;;;;;;4116713;28;20050;-81
2022/07/12 03:27:31;;;;;;;5.40;2.90;;;15.30;99.90;;;;;;4146955;28;20133;-81
2022/07/12 03:29:32;;;;;;;6.00;3.00;;;15.30;99.90;;;;;;4122558;28;20066;-81
2022/07/12 03:31:32;;;;;;;4.90;2.60;;;15.30;99.90;;;;;;4132110;28;20104;-82
2022/07/12 03:33:36;;;;;;;5.18;3.22;;;15.40;99.90;;;;;;4121440;28;20101;-82
2022/07/12 03:35:37;;;;;;;6.18;3.40;;;15.30;99.90;;;;;;4127488;28;20051;-82
2022/07/12 03:37:49;;;;;;;19.83;3.03;;;15.30;99.90;;;;;;4144786;28;20065;-82
2022/07/12 03:39:50;;;;;;;10.82;3.13;;;15.30;99.90;;;;;;4107281;28;20062;-82
2022/07/12 03:41:52;;;;;;;3.67;2.80;;;15.30;99.90;;;;;;4099457;28;20508;-82
2022/07/12 03:43:52;;;;;;;4.55;3.08;;;15.30;99.90;;;;;;4102991;28;20054;-82
2022/07/12 03:45:53;;;;;;;4.50;3.35;;;15.20;99.90;;;;;;4131481;28;20522;-83
2022/07/12 03:47:54;;;;;;;4.95;3.13;;;15.30;99.90;;;;;;4099337;28;20543;-82
2022/07/12 03:49:56;;;;;;;6.82;3.80;;;15.20;99.90;;;;;;4100923;29;20051;-82
2022/07/12 03:51:57;;;;;;;5.18;3.53;;;15.20;99.90;;;;;;4100668;29;20484;-82
2022/07/12 03:53:57;;;;;;;4.60;3.08;;;15.20;99.90;;;;;;4099913;29;20126;-83
2022/07/12 03:55:58;;;;;;;6.00;3.67;;;15.30;99.90;;;;;;4099553;29;20063;-82
2022/07/12 03:57:59;;;;;;;5.50;3.17;;;15.20;99.90;;;;;;4082408;29;20197;-82
2022/07/12 03:59:59;;;;;;;6.18;3.58;;;15.20;99.90;;;;;;4096543;29;20067;-82
2022/07/12 04:02:02;;;;;;;11.15;4.20;;;15.20;99.90;;;;;;4099163;28;20047;-83
2022/07/12 04:04:02;;;;;;;13.20;3.83;;;15.20;99.90;;;;;;4079890;29;20409;-82
2022/07/12 04:06:03;;;;;;;5.53;3.38;;;15.20;99.90;;;;;;4106435;28;20051;-82
2022/07/12 04:08:04;;;;;;;7.32;3.80;;;15.30;99.90;;;;;;4094098;29;20058;-82
2022/07/12 04:10:05;;;;;;;6.18;3.90;;;15.30;99.90;;;;;;4089907;28;20083;-82
2022/07/12 04:12:07;;;;;;;5.65;4.18;;;15.30;99.90;;;;;;4096949;28;20471;-83
2022/07/12 04:14:07;;;;;;;6.57;3.58;;;15.30;99.90;;;;;;4097882;29;20058;-83
2022/07/12 04:16:08;;;;;;;6.22;3.42;;;15.30;99.90;;;;;;4087625;29;20436;-83
2022/07/12 04:18:11;;;;;;;8.43;3.92;;;15.30;99.90;;;;;;4094041;29;20075;-83
2022/07/12 04:20:12;;;;;;;6.35;4.03;;;15.30;99.90;;;;;;4117196;28;20086;-81
2022/07/12 04:22:13;;;;;;;5.53;3.63;;;15.30;99.90;;;;;;4126870;28;20465;-80
2022/07/12 04:24:13;;;;;;;5.43;4.03;;;15.40;99.90;;;;;;4095042;28;20075;-80
2022/07/12 04:26:14;;;;;;;5.82;3.97;;;15.40;99.90;;;;;;4090280;29;20129;-81
2022/07/12 04:28:15;;;;;;;5.90;4.13;;;15.40;99.90;;;;;;4123439;28;20054;-80
2022/07/12 04:30:15;;;;;;;7.10;4.68;;;15.40;99.90;;;;;;4085782;28;20511;-81
2022/07/12 04:32:16;;;;;;;7.03;4.07;;;15.40;99.90;;;;;;4092465;29;20082;-80
2022/07/12 04:34:17;;;;;;;6.57;4.05;;;15.40;99.90;;;;;;4119704;28;20081;-81
2022/07/12 04:36:18;;;;;;;5.18;3.38;;;15.40;99.90;;;;;;4083172;28;20511;-80
2022/07/12 04:38:18;;;;;;;5.72;3.83;;;15.30;99.90;;;;;;4081706;29;20548;-81
2022/07/12 04:40:19;;;;;;;8.00;4.38;;;15.30;99.90;;;;;;4083830;29;20433;-83
2022/07/12 04:42:20;;;;;;;6.07;3.85;;;15.40;99.90;;;;;;4084820;29;20059;-80
2022/07/12 04:44:21;;;;;;;6.15;3.67;;;15.40;99.90;;;;;;4087925;29;20044;-82
2022/07/12 04:46:22;;;;;;;7.93;3.72;;;15.40;99.90;;;;;;4082817;29;20055;-82
2022/07/12 04:48:23;;;;;;;7.13;4.57;;;15.40;99.90;;;;;;4082710;29;20054;-82
2022/07/12 04:50:23;;;;;;;12.85;5.13;;;15.40;99.90;;;;;;4085290;29;20390;-82
2022/07/12 04:52:24;;;;;;;22.05;5.30;;;15.40;99.90;;;;;;4086681;29;20404;-82
2022/07/12 04:54:25;;;;;;;13.73;4.53;;;15.40;99.90;;;;;;4083060;29;20047;-82
2022/07/12 04:56:26;;;;;;;11.75;4.68;;;15.40;99.90;;;;;;4114435;28;20042;-82
2022/07/12 04:58:28;;;;;;;12.30;4.95;;;15.30;99.90;;;;;;4082698;28;20054;-83
2022/07/12 05:00:28;;;;;;;7.63;4.43;;;15.30;99.90;;;;;;4083623;29;20110;-81
2022/07/12 05:02:29;;;;;;;11.48;4.72;;;15.30;99.90;;;;;;4083004;29;20055;-80
2022/07/12 05:04:33;;;;;;;13.13;4.68;;;15.30;99.90;;;;;;4083156;29;20051;-80
2022/07/12 05:06:34;;;;;;;24.85;5.45;;;15.30;99.90;;;;;;4083248;29;20055;-80
2022/07/12 05:08:35;;;;;;;10.75;5.50;;;15.20;99.90;;;;;;4098687;29;20062;-80
2022/07/12 05:10:36;;;;;;;8.32;4.80;;;15.20;99.90;;;;;;4099502;29;20047;-80
2022/07/12 05:12:37;;;;;;;13.30;5.15;;;15.20;99.90;;;;;;4084203;29;20051;-80
2022/07/12 05:14:39;;;;;;;10.93;4.75;;;15.30;99.90;;;;;;4115077;28;20627;-82
2022/07/12 05:16:39;;;;;;;7.65;3.92;;;15.30;99.90;;;;;;4083566;29;20051;-82
2022/07/12 05:18:41;;;;;;;8.07;4.20;;;15.30;99.90;;;;;;4083508;29;20043;-82
2022/07/12 05:20:42;;;;;;;8.57;4.10;;;15.30;99.90;;;;;;4082593;29;20047;-82
2022/07/12 05:22:42;;;;;;;12.18;5.10;;;15.30;99.90;;;;;;4081702;29;20186;-82
2022/07/12 05:24:43;;;;;;;10.27;4.57;;;15.30;99.90;;;;;;4082327;29;20047;-82
2022/07/12 05:26:45;;;;;;;12.02;4.63;;;15.30;99.90;;;;;;4082237;29;20059;-82
2022/07/12 05:28:45;;;;;;;7.97;4.50;;;15.30;99.90;;;;;;4082211;29;20139;-83
2022/07/12 05:30:47;;;;;;;11.55;5.13;;;15.40;99.90;;;;;;4082064;29;20435;-82
2022/07/12 05:32:49;;;;;;;11.55;5.10;;;15.40;99.90;;;;;;4082204;29;20055;-82
2022/07/12 05:34:50;;;;;;;10.93;5.30;;;15.50;99.90;;;;;;4083578;29;20122;-82
2022/07/12 05:36:51;;;;;;;7.93;4.38;;;15.40;99.90;;;;;;4083033;29;20122;-81
2022/07/12 05:38:52;;;;;;;8.52;4.70;;;15.40;99.90;;;;;;4113721;28;20059;-83
2022/07/12 05:40:52;;;;;;;10.05;4.30;;;15.40;99.90;;;;;;4066722;29;20060;-83
2022/07/12 05:42:54;;;;;;;9.48;4.43;;;15.40;99.90;;;;;;4083334;29;20048;-82
2022/07/12 05:44:55;;;;;;;13.57;4.93;;;15.40;99.90;;;;;;4082515;29;20059;-83
2022/07/12 05:46:56;;;;;;;9.77;4.50;;;15.40;99.90;;;;;;4082015;29;20134;-82
2022/07/12 05:48:56;;;;;;;10.32;4.68;;;15.40;99.90;;;;;;4114653;28;20042;-82
2022/07/12 05:53:21;;;;;;;13.60;4.53;;;15.50;99.90;;;;;;4083998;28;20050;-82
2022/07/12 05:53:24;;;;;;;11.15;5.22;;;15.50;99.90;;;;;;4098443;29;20083;-82
2022/07/12 05:55:25;;;;;;;11.45;4.72;;;15.50;99.90;;;;;;4083793;29;20056;-82
2022/07/12 05:57:26;;;;;;;10.18;4.80;;;15.50;99.90;;;;;;4098008;29;20047;-82
2022/07/12 05:59:28;;;;;;;10.07;4.43;;;15.50;99.90;;;;;;4083309;29;20103;-82
2022/07/12 06:01:29;;;;;;;7.38;3.97;;;15.50;99.90;;;;;;4100706;29;20066;-82
2022/07/12 06:03:30;;;;;;;6.90;3.65;;;15.60;99.90;;;;;;4101056;29;20047;-82
2022/07/12 06:05:30;;;;;;;8.50;4.05;;;15.60;99.90;;;;;;4069408;29;20051;-82
2022/07/12 06:07:31;;;;;;;6.95;3.90;;;15.60;99.90;;;;;;4085816;29;20103;-82
2022/07/12 06:09:32;;;;;;;10.02;4.15;;;15.60;99.90;;;;;;4086376;29;20043;-82
2022/07/12 06:11:33;;;;;;;6.45;3.63;;;15.70;99.90;;;;;;4086305;29;20044;-82
2022/07/12 06:13:34;;;;;;;6.53;3.80;;;15.70;99.90;;;;;;4085986;28;20049;-82
2022/07/12 06:15:34;;;;;;;7.03;3.70;;;15.70;99.90;;;;;;4085091;29;20524;-82
2022/07/12 06:17:35;;;;;;;7.03;3.75;;;15.80;99.90;;;;;;4116689;28;20108;-82
2022/07/12 06:19:35;;;;;;;6.70;3.70;;;16.00;99.90;;;;;;4086575;28;20047;-82
2022/07/12 06:21:36;;;;;;;6.88;3.97;;;16.10;99.90;;;;;;4100412;29;20061;-83
2022/07/12 06:23:37;;;;;;;6.50;3.45;;;16.10;99.90;;;;;;4102132;29;20055;-82
2022/07/12 06:25:37;;;;;;;8.65;4.32;;;16.10;99.90;;;;;;4087898;29;20397;-82
2022/07/12 06:27:39;;;;;;;6.50;3.97;;;16.10;99.90;;;;;;4084805;29;20155;-83
2022/07/12 06:29:40;;;;;;;8.02;3.90;;;16.10;99.90;;;;;;4116430;28;20082;-82
2022/07/12 06:31:41;;;;;;;6.85;3.15;;;16.10;99.90;;;;;;4086049;28;20095;-83
2022/07/12 06:33:42;;;;;;;6.35;3.78;;;16.20;99.90;;;;;;4084412;29;20056;-82
2022/07/12 06:35:43;;;;;;;6.30;3.58;;;16.20;99.90;;;;;;4085903;29;20178;-82
2022/07/12 06:37:44;;;;;;;7.22;3.67;;;16.30;99.90;;;;;;4085797;29;20087;-82
2022/07/12 06:39:46;;;;;;;8.35;3.97;;;16.40;99.90;;;;;;4116682;28;20047;-83
2022/07/12 06:41:47;;;;;;;4.95;3.20;;;16.50;99.90;;;;;;4116983;28;20054;-82
2022/07/12 06:43:49;;;;;;;6.28;3.45;;;16.50;99.90;;;;;;4132333;28;20809;-82
2022/07/12 06:45:49;;;;;;;6.30;3.70;;;16.50;99.90;;;;;;4117402;28;20086;-82
2022/07/12 06:47:51;;;;;;;5.28;3.53;;;16.50;99.90;;;;;;4117962;28;20038;-81
2022/07/12 06:49:52;;;;;;;5.13;3.42;;;16.60;99.90;;;;;;4117837;28;20090;-82
2022/07/12 06:51:52;;;;;;;4.68;3.05;;;16.70;99.90;;;;;;4117002;28;20492;-82
2022/07/12 06:53:54;;;;;;;5.03;3.22;;;16.80;99.90;;;;;;4117478;28;20051;-82
2022/07/12 06:55:57;;;;;;;6.93;3.60;;;16.80;99.90;;;;;;4132074;28;20523;-82
2022/07/12 06:57:58;;;;;;;3.67;2.80;;;16.90;99.90;;;;;;4117290;28;20055;-82
2022/07/12 06:59:58;;;;;;;5.15;2.95;;;17.00;99.90;;;;;;4117081;28;20069;-82
2022/07/12 07:01:59;;;;;;;4.75;2.72;;;17.00;99.90;;;;;;4132262;28;20489;-82
2022/07/12 07:04:01;;;;;;;4.90;2.67;;;17.00;99.90;;;;;;4117135;28;20053;-82
2022/07/12 07:06:01;;;;;;;11.35;3.40;;;17.10;99.90;;;;;;4132290;28;20069;-82
2022/07/12 07:08:03;;;;;;;8.05;3.53;;;17.20;99.90;;;;;;4099983;28;20051;-82
2022/07/12 07:10:04;;;;;;;4.55;3.03;;;17.20;99.90;;;;;;4100256;29;20051;-82
2022/07/12 07:12:05;;;;;;;6.82;3.58;;;17.30;99.90;;;;;;4115657;28;20098;-82
2022/07/12 07:14:06;;;;;;;4.40;3.05;;;17.30;99.90;;;;;;4131952;28;20074;-82
2022/07/12 07:16:07;;;;;;;4.20;2.72;;;17.40;99.90;;;;;;4084526;29;20107;-82
2022/07/12 07:18:07;;;;;;;6.35;2.85;;;17.50;99.90;;;;;;4100109;29;20138;-83
2022/07/12 07:20:10;;;;;;;5.47;2.38;;;17.50;99.90;;;;;;4099746;29;20484;-82
2022/07/12 07:22:12;;;;;;;4.82;3.15;;;17.60;99.90;;;;;;4099889;29;20532;-82
2022/07/12 07:24:12;;;;;;;9.05;3.63;;;17.70;99.90;;;;;;4116796;28;20114;-82
2022/07/12 07:26:13;;;;;;;5.78;2.90;;;17.90;99.90;;;;;;4131679;28;20575;-82
2022/07/12 07:28:14;;;;;;;4.75;3.00;;;18.00;99.90;;;;;;4099631;29;20443;-82
2022/07/12 07:32:35;;;;;;;4.03;2.58;;;18.20;99.90;;;;;;4116812;28;20157;-82
2022/07/12 07:34:36;;;;;;;4.22;2.70;;;18.30;99.90;;;;;;4116979;28;20102;-82
2022/07/12 07:36:36;;;;;;;3.45;2.60;;;18.40;99.90;;;;;;4131824;28;20038;-82
2022/07/12 07:38:37;;;;;;;5.53;2.55;;;18.60;99.90;;;;;;4131672;28;20094;-82
2022/07/12 07:40:37;;;;;;;5.18;2.50;;;18.60;99.90;;;;;;4099516;28;20055;-82
2022/07/12 07:42:38;;;;;;;5.90;2.95;;;18.70;99.90;;;;;;4131374;28;20079;-82
2022/07/12 07:44:40;;;;;;;7.30;2.63;;;18.70;99.90;;;;;;4096228;29;20056;-83
2022/07/12 07:46:41;;;;;;;4.05;2.70;;;18.80;99.90;;;;;;4139106;28;20138;-81
2022/07/12 07:48:41;;;;;;;4.95;2.25;;;18.90;99.90;;;;;;4138921;28;20439;-81
2022/07/12 07:50:42;;;;;;;3.90;2.40;;;19.00;99.90;;;;;;4143628;28;20054;-81
2022/07/12 07:52:43;;;;;;;5.82;2.10;;;19.10;99.90;;;;;;4126747;28;20042;-82
2022/07/12 07:54:43;;;;;;;2.95;2.20;;;19.20;99.90;;;;;;4136910;28;20120;-83
2022/07/12 07:56:44;;;;;;;3.22;1.85;;;19.30;99.90;;;;;;4117192;28;20050;-82
2022/07/12 07:58:45;;;;;;;4.90;1.80;;;19.40;99.90;;;;;;4131270;28;20052;-82
2022/07/12 08:00:45;;;;;;;5.55;2.05;;;19.60;99.90;;;;;;4116512;28;20051;-81
2022/07/12 08:02:46;;;;;;;3.45;2.13;;;19.70;99.90;;;;;;4131638;28;20129;-82
2022/07/12 08:04:47;;;;;;;3.60;1.85;;;19.80;99.90;;;;;;4116285;28;20042;-82
2022/07/12 08:06:49;;;;;;;3.58;1.83;;;19.80;99.90;;;;;;4131440;28;20410;-82
2022/07/12 08:08:49;;;;;;;5.13;1.73;;;20.00;99.90;;;;;;4115874;28;20109;-82
2022/07/12 08:10:50;;;;;;;3.83;1.50;;;20.10;99.90;;;;;;4116192;28;20050;-82
2022/07/12 08:12:51;;;;;;;4.57;2.08;;;20.20;99.90;;;;;;4130913;28;20159;-82
2022/07/12 08:14:52;;;;;;;4.88;1.92;;;20.40;99.90;;;;;;4117074;28;20385;-82
2022/07/12 08:16:52;;;;;;;3.35;1.45;;;20.40;99.90;;;;;;4116833;28;20053;-82
2022/07/12 08:18:55;;;;;;;3.88;1.70;;;20.50;99.90;;;;;;4131738;28;20047;-81
2022/07/12 08:20:55;;;;;;;2.92;2.08;;;20.60;99.90;;;;;;4116117;28;20051;-82
2022/07/12 08:22:56;;;;;;;4.03;1.50;;;20.70;99.90;;;;;;4116151;28;20054;-82
2022/07/12 08:24:57;;;;;;;1.58;1.20;;;20.60;99.90;;;;;;4115680;28;20050;-82
2022/07/12 08:26:58;;;;;;;1.67;1.33;;;20.70;99.90;;;;;;4116393;28;20043;-83
2022/07/12 08:28:59;;;;;;;5.88;1.40;;;20.80;99.90;;;;;;4115082;28;20042;-81
2022/07/12 08:31:00;;;;;;;1.88;1.50;;;20.90;99.90;;;;;;4083604;29;20054;-82
2022/07/12 08:33:01;;;;;;;1.48;1.13;;;20.90;99.90;;;;;;4115923;28;20541;-81
2022/07/12 08:35:01;;;;;;;6.20;1.30;;;20.90;99.90;;;;;;4116281;28;20074;-83
2022/07/12 08:37:03;;;;;;;2.47;1.08;;;21.00;99.90;;;;;;4131108;28;20046;-83
2022/07/12 08:39:04;;;;;;;1.05;0.95;;;21.10;99.90;;;;;;4131341;28;20062;-83
2022/07/12 08:41:05;;;;;;;2.00;1.30;;;21.20;99.90;;;;;;4099040;28;20082;-81
2022/07/12 08:43:05;;;;;;;2.38;1.23;;;21.20;99.90;;;;;;4099182;29;20174;-82
2022/07/12 08:45:06;;;;;;;1.98;1.42;;;21.20;99.90;;;;;;4115313;28;20035;-82
2022/07/12 08:47:08;;;;;;;3.40;1.23;;;21.20;99.90;;;;;;4098972;29;20515;-82
2022/07/12 08:49:09;;;;;;;1.27;1.00;;;21.30;99.90;;;;;;4115905;28;20039;-82
2022/07/12 08:51:13;;;;;;;2.35;1.30;;;21.30;99.90;;;;;;4115663;28;20047;-82
2022/07/12 08:53:14;;;;;;;2.13;1.30;;;21.30;99.90;;;;;;4115638;28;20531;-82
2022/07/12 08:55:25;;;;;;;3.22;1.80;;;21.30;99.90;;;;;;4114364;28;20117;-82
2022/07/12 08:57:30;;;;;;;4.70;1.48;;;21.40;99.90;;;;;;4115548;28;20097;-82
2022/07/12 08:59:31;;;;;;;2.33;1.60;;;21.40;99.90;;;;;;4115812;28;20046;-82
2022/07/12 09:01:47;;;;;;;2.13;1.50;;;21.50;99.90;;;;;;4130437;28;20517;-82
2022/07/12 09:04:08;;;;;;;3.08;1.13;;;21.70;99.90;;;;;;4114212;28;20050;-82
2022/07/12 09:06:11;;;;;;;4.70;1.73;;;21.90;99.90;;;;;;4098236;29;20050;-82
2022/07/12 09:08:12;;;;;;;2.85;1.00;;;22.00;99.90;;;;;;4115033;28;20039;-82
2022/07/12 09:10:15;;;;;;;4.07;1.27;;;22.10;99.90;;;;;;4131624;28;20050;-83
2022/07/12 09:12:24;;;;;;;2.97;1.40;;;22.20;99.90;;;;;;4118606;28;20054;-82
2022/07/12 09:14:26;;;;;;;1.98;1.40;;;22.20;99.90;;;;;;4116096;28;20097;-82
2022/07/12 09:16:27;;;;;;;4.35;2.00;;;22.30;99.90;;;;;;4130780;28;20116;-83
2022/07/12 09:18:28;;;;;;;6.85;2.45;;;22.20;99.90;;;;;;4115256;28;20050;-82
2022/07/12 09:20:34;;;;;;;4.05;1.40;;;22.30;99.90;;;;;;4114402;28;20065;-82
2022/07/12 09:22:34;;;;;;;4.22;1.40;;;22.30;99.90;;;;;;4130419;28;20062;-82
2022/07/12 09:24:36;;;;;;;4.28;1.98;;;22.40;99.90;;;;;;4115651;28;20553;-82
2022/07/12 09:26:37;;;;;;;1.95;1.58;;;22.40;99.90;;;;;;4115824;28;20119;-82
2022/07/12 09:28:38;;;;;;;3.42;1.42;;;22.40;99.90;;;;;;4130192;28;20054;-83
2022/07/12 09:30:48;;;;;;;1.77;1.50;;;22.40;99.90;;;;;;4129568;28;20443;-82
2022/07/12 09:37:40;;;;;;;2.20;1.55;;;22.50;99.90;;;;;;4118835;28;19937;-82
2022/07/12 09:39:41;;;;;;;2.42;1.30;;;22.50;99.90;;;;;;4118442;28;20126;-83
2022/07/12 09:41:43;;;;;;;3.63;1.88;;;22.60;99.90;;;;;;4118579;28;20053;-82
2022/07/12 09:43:45;;;;;;;4.00;1.60;;;22.80;99.90;;;;;;4132735;28;20042;-82
2022/07/12 09:45:47;;;;;;;1.50;1.25;;;23.00;99.90;;;;;;4101658;29;20059;-82
2022/07/12 09:47:50;;;;;;;6.20;1.80;;;23.00;99.90;;;;;;4118799;28;20069;-83
2022/07/12 09:49:52;;;;;;;4.97;1.55;;;23.10;99.90;;;;;;4085563;29;20118;-83
2022/07/12 09:51:55;;;;;;;2.45;1.70;;;23.20;99.90;;;;;;4101356;28;20051;-82
2022/07/12 09:54:00;;;;;;;2.55;1.70;;;23.30;99.90;;;;;;4118418;28;20049;-82
2022/07/12 09:56:09;;;;;;;3.60;1.25;;;23.40;99.90;;;;;;4118474;28;20491;-82
2022/07/12 09:58:11;;;;;;;;;;;23.40;99.90;;;;;;4133431;28;20054;-82
2022/07/12 10:00:13;;;;;;;1.38;1.27;;;23.60;98.40;;;;;;4118691;28;19948;-82
2022/07/12 10:02:15;;;;;;;3.35;1.35;;;23.80;99.90;;;;;;4118571;28;20046;-82
2022/07/12 10:04:24;;;;;;;2.42;1.50;;;24.00;99.40;;;;;;4118567;28;20384;-82
2022/07/12 10:06:29;;;;;;;4.03;1.87;;;24.30;98.90;;;;;;4101542;29;20065;-82
2022/07/12 10:08:33;;;;;;;3.17;1.17;;;24.50;98.30;;;;;;4118609;28;20055;-82
2022/07/12 10:10:35;;;;;;;1.77;1.50;;;24.50;98.10;;;;;;4100995;29;20097;-81
2022/07/12 10:12:37;;;;;;;4.40;1.40;;;24.50;97.40;;;;;;4133931;28;20061;-82
2022/07/12 10:14:39;;;;;;;1.65;1.30;;;24.50;97.40;;;;;;4133807;28;20050;-82
2022/07/12 10:16:45;;;;;;;2.50;1.17;;;24.50;97.40;;;;;;4085764;29;20608;-82
2022/07/12 10:18:46;;;;;;;1.65;1.20;;;24.70;97.00;;;;;;4133390;28;20042;-82
2022/07/12 10:20:49;;;;;;;3.17;1.30;;;24.70;96.90;;;;;;4133835;28;20054;-82
2022/07/12 10:23:15;;;;;;;2.08;1.40;;;24.70;96.60;;;;;;4118643;28;20066;-82
2022/07/12 10:25:29;;;;;;;1.20;0.98;;;24.40;96.50;;;;;;4133147;28;20110;-82
2022/07/12 10:27:31;;;;;;;5.75;1.30;;;24.30;95.40;;;;;;4101197;29;20043;-83
2022/07/12 10:29:31;;;;;;;2.08;1.40;;;24.20;96.50;;;;;;4118247;28;20107;-83
2022/07/12 10:31:37;;;;;;;1.63;1.00;;;24.30;96.40;;;;;;4132683;28;20462;-82
2022/07/12 10:33:38;;;;;;;2.47;1.15;;;24.50;96.10;;;;;;4117880;28;20471;-83
2022/07/12 10:35:56;;;;;;;1.45;1.02;;;24.50;96.20;;;;;;4134297;28;20053;-83
2022/07/12 10:38:13;;;;;;;1.83;1.13;;;24.50;95.70;;;;;;4118312;28;20518;-82
2022/07/12 10:40:19;;;;;;;1.35;0.95;;;24.60;94.70;;;;;;4117160;28;20094;-83